Millersburg, Ohio
Current Conditions -  °F | °C
As of 11:56 AM on Friday 19 Dec 2014 (Local Time) from KBJJ Reporting Station
Overcast Overcast  
Wind Chill: 22°   Ceiling: 2400
Heat Index: 29°   Visibility: 10mi
Dew Point: 25°   Wind: 7mph
Humidity: 85%   Direction: 320°NW
Pressure: 30.23"   Gusts: NA
Location:  40.55°N, 81.92°W
Report Text: KBJJ 191656Z AUTO 32006KT 10SM FEW010 OVC024 M02/M04 A3023 RMK AO2 SLP251 T10171039 TSNO
Loading
Personal Weather Stations






























Interactive Weather Map New forecast layout! Learn more

10-Day Weather Forecast

Advertisements
Track Severe Weather on mobile